Hawthorne, Nevada
Current Conditions -  °F | °C
As of 2:52 AM on Monday 22 Dec 2014 (Local Time) from KBAN Reporting Station
Clear Clear  
Wind Chill: 24°   Ceiling: Unl
Heat Index: 24°   Visibility: NA
Dew Point: 19°   Wind: 0mph
Humidity: 81%   Direction: NA
Pressure: 30.35"   Gusts: NA
Location:  38.52°N, 118.63°W
Report Text: KBAN 221052Z AUTO 00000KT CLR M04/M07 A3035 RMK AO2 SLP265 T10441072 FZRANO $
Loading
Personal Weather Stations






























Interactive Weather Map New forecast layout! Learn more

10-Day Weather Forecast

Advertisements
Track Severe Weather on mobile